Time;durP1;ratioP1;P1;durP2;ratioP2;P2;SDS_P1;SDS_P2;PMS_P1;PMS_P2;Temp;Humidity;BMP_temperature;BMP_pressure;BME280_temperature;BME280_humidity;BME280_pressure;Samples;Min_cycle;Max_cycle;Signal;HPM_P1;HPM_P2
2023/07/31 00:01:27;;;;;;;3.70;1.63;;;;;;;;;;5114589;28;20026;-27
2023/07/31 00:03:52;;;;;;;5.33;2.00;;;;;;;;;;5114328;28;20265;-26
2023/07/31 00:06:17;;;;;;;8.98;2.00;;;;;;;;;;5114285;28;20253;-27
2023/07/31 00:08:42;;;;;;;7.40;2.45;;;;;;;;;;5114182;28;20016;-27
2023/07/31 00:11:07;;;;;;;12.45;2.55;;;;;;;;;;5114249;28;20091;-26
2023/07/31 00:13:33;;;;;;;5.27;2.30;;;;;;;;;;5113976;28;20016;-27
2023/07/31 00:15:59;;;;;;;9.33;2.60;;;;;;;;;;5113973;28;20253;-26
2023/07/31 00:18:24;;;;;;;23.77;3.15;;;;;;;;;;5114442;28;20265;-26
2023/07/31 00:20:49;;;;;;;16.42;2.70;;;;;;;;;;5113865;28;20015;-27
2023/07/31 00:23:14;;;;;;;16.30;2.73;;;;;;;;;;5114377;28;20042;-27
2023/07/31 00:25:40;;;;;;;16.67;2.60;;;;;;;;;;5113850;28;20012;-27
2023/07/31 00:28:05;;;;;;;8.80;2.20;;;;;;;;;;5114394;28;20242;-26
2023/07/31 00:30:30;;;;;;;5.60;2.05;;;;;;;;;;5113815;28;20734;-27
2023/07/31 00:32:55;;;;;;;4.97;2.20;;;;;;;;;;5114037;28;20042;-26
2023/07/31 00:35:20;;;;;;;7.20;2.47;;;;;;;;;;5113819;28;20249;-27
2023/07/31 00:37:46;;;;;;;8.00;2.70;;;;;;;;;;5113662;28;20265;-26
2023/07/31 00:40:11;;;;;;;13.87;3.77;;;;;;;;;;5113330;28;20040;-27
2023/07/31 00:42:36;;;;;;;14.20;4.30;;;;;;;;;;5113059;28;20288;-26
2023/07/31 00:45:01;;;;;;;26.87;5.23;;;;;;;;;;5114115;28;20241;-27
2023/07/31 00:47:26;;;;;;;28.90;6.17;;;;;;;;;;5114443;28;20023;-27
2023/07/31 00:49:52;;;;;;;25.65;5.97;;;;;;;;;;5113888;28;20260;-27
2023/07/31 00:52:18;;;;;;;23.35;5.57;;;;;;;;;;5113918;28;20019;-27
2023/07/31 00:54:43;;;;;;;18.33;5.65;;;;;;;;;;5114220;28;20027;-27
2023/07/31 00:57:08;;;;;;;20.13;5.37;;;;;;;;;;5113629;28;20016;-27
2023/07/31 00:59:34;;;;;;;20.88;5.07;;;;;;;;;;5114094;28;20280;-27
2023/07/31 01:01:59;;;;;;;15.18;4.38;;;;;;;;;;5113779;28;20024;-27
2023/07/31 01:04:24;;;;;;;16.33;4.32;;;;;;;;;;5117451;28;20024;-27
2023/07/31 01:06:50;;;;;;;17.08;3.55;;;;;;;;;;5117599;28;20011;-27
2023/07/31 01:09:18;;;;;;;12.50;3.63;;;;;;;;;;5117373;28;20044;-27
2023/07/31 01:11:48;;;;;;;10.75;3.35;;;;;;;;;;5117852;28;20028;-27
2023/07/31 01:14:13;;;;;;;8.80;2.97;;;;;;;;;;5117550;28;20027;-27
2023/07/31 01:16:38;;;;;;;12.87;3.40;;;;;;;;;;5117251;28;20039;-27
2023/07/31 01:19:04;;;;;;;9.40;3.00;;;;;;;;;;5117169;28;20608;-27
2023/07/31 01:21:35;;;;;;;13.43;3.33;;;;;;;;;;5117303;28;20277;-27
2023/07/31 01:24:09;;;;;;;8.50;3.00;;;;;;;;;;5117057;28;20019;-27
2023/07/31 01:26:36;;;;;;;7.82;2.75;;;;;;;;;;5117543;28;20020;-27
2023/07/31 01:29:03;;;;;;;9.60;3.10;;;;;;;;;;5117529;28;20094;-27
2023/07/31 01:31:29;;;;;;;15.35;3.28;;;;;;;;;;5116967;28;20027;-27
2023/07/31 01:33:56;;;;;;;13.75;3.00;;;;;;;;;;5117394;28;20450;-27
2023/07/31 01:36:21;;;;;;;20.83;3.72;;;;;;;;;;5116886;28;20102;-27
2023/07/31 01:38:46;;;;;;;8.20;3.15;;;;;;;;;;5116918;28;20075;-28
2023/07/31 01:41:12;;;;;;;14.80;3.28;;;;;;;;;;5117476;28;20035;-28
2023/07/31 01:43:37;;;;;;;14.50;3.30;;;;;;;;;;5116989;28;20034;-27
2023/07/31 01:46:02;;;;;;;7.43;3.03;;;;;;;;;;5116705;28;20422;-28
2023/07/31 01:48:27;;;;;;;11.57;3.35;;;;;;;;;;5116885;28;20310;-28
2023/07/31 01:50:53;;;;;;;18.57;3.60;;;;;;;;;;5116576;28;20023;-27
2023/07/31 01:53:18;;;;;;;11.97;3.87;;;;;;;;;;5117079;28;20257;-28
2023/07/31 01:55:43;;;;;;;20.80;4.77;;;;;;;;;;5116547;28;20331;-27
2023/07/31 01:58:09;;;;;;;21.33;5.23;;;;;;;;;;5116708;28;20714;-26
2023/07/31 02:00:34;;;;;;;23.10;5.20;;;;;;;;;;5116384;28;20254;-28
2023/07/31 02:02:59;;;;;;;22.05;5.28;;;;;;;;;;5116420;28;20088;-26
2023/07/31 02:05:25;;;;;;;27.67;5.57;;;;;;;;;;5116307;28;20015;-26
2023/07/31 02:07:50;;;;;;;25.23;5.97;;;;;;;;;;5116233;28;20486;-26
2023/07/31 02:10:15;;;;;;;29.33;6.05;;;;;;;;;;5116514;28;20023;-26
2023/07/31 02:12:40;;;;;;;27.67;5.72;;;;;;;;;;5116486;28;20098;-26
2023/07/31 02:15:06;;;;;;;27.83;6.07;;;;;;;;;;5114910;28;20031;-26
2023/07/31 02:17:31;;;;;;;31.13;6.80;;;;;;;;;;5116043;28;20272;-26
2023/07/31 02:19:56;;;;;;;23.53;6.00;;;;;;;;;;5116261;28;20065;-26
2023/07/31 02:22:21;;;;;;;29.23;6.13;;;;;;;;;;5115944;28;20095;-26
2023/07/31 02:24:47;;;;;;;24.03;5.70;;;;;;;;;;5116451;28;20012;-26
2023/07/31 02:27:12;;;;;;;25.27;5.97;;;;;;;;;;5115937;28;20027;-27
2023/07/31 02:29:37;;;;;;;29.07;6.23;;;;;;;;;;5115804;28;20097;-26
2023/07/31 02:32:02;;;;;;;24.83;6.53;;;;;;;;;;5115815;28;20491;-26
2023/07/31 02:34:27;;;;;;;21.75;6.22;;;;;;;;;;5116277;28;20254;-27
2023/07/31 02:36:53;;;;;;;26.70;6.13;;;;;;;;;;5115965;28;20023;-27
2023/07/31 02:39:18;;;;;;;34.23;6.50;;;;;;;;;;5115840;28;20281;-28
2023/07/31 02:41:43;;;;;;;35.67;6.77;;;;;;;;;;5116084;28;20058;-27
2023/07/31 02:44:08;;;;;;;28.23;6.37;;;;;;;;;;5115594;28;20268;-27
2023/07/31 02:46:33;;;;;;;31.60;7.28;;;;;;;;;;5115760;28;20249;-27
2023/07/31 02:48:59;;;;;;;35.88;7.13;;;;;;;;;;5115709;28;20026;-27
2023/07/31 02:51:24;;;;;;;31.63;6.43;;;;;;;;;;5115407;28;20023;-27
2023/07/31 02:53:49;;;;;;;30.63;6.23;;;;;;;;;;5115312;28;20060;-27
2023/07/31 02:56:14;;;;;;;32.90;6.72;;;;;;;;;;5115499;28;20413;-28
2023/07/31 02:58:40;;;;;;;38.80;5.95;;;;;;;;;;5115236;28;20070;-26
2023/07/31 03:01:05;;;;;;;25.57;6.43;;;;;;;;;;5115405;28;20020;-27
2023/07/31 03:03:30;;;;;;;23.65;6.20;;;;;;;;;;5115284;28;20596;-26
2023/07/31 03:05:55;;;;;;;39.40;7.40;;;;;;;;;;5115111;28;20011;-26
2023/07/31 03:08:21;;;;;;;29.20;6.77;;;;;;;;;;5115336;28;20250;-26
2023/07/31 03:10:46;;;;;;;27.05;6.03;;;;;;;;;;5115323;28;20118;-27
2023/07/31 03:13:11;;;;;;;32.65;6.75;;;;;;;;;;5114933;28;20061;-27
2023/07/31 03:15:36;;;;;;;25.67;6.90;;;;;;;;;;5115448;28;20030;-27
2023/07/31 03:18:01;;;;;;;33.07;7.10;;;;;;;;;;5114863;28;20190;-27
2023/07/31 03:20:27;;;;;;;36.10;6.80;;;;;;;;;;5114743;28;20658;-26
2023/07/31 03:22:52;;;;;;;27.20;6.67;;;;;;;;;;5114715;28;20498;-27
2023/07/31 03:25:17;;;;;;;38.20;6.80;;;;;;;;;;5114464;28;20265;-26
2023/07/31 03:27:42;;;;;;;36.45;6.38;;;;;;;;;;5115296;28;20027;-26
2023/07/31 03:30:07;;;;;;;31.70;7.43;;;;;;;;;;5114758;28;20450;-27
2023/07/31 03:32:33;;;;;;;39.92;7.25;;;;;;;;;;5115597;28;20027;-27
2023/07/31 03:34:58;;;;;;;31.10;6.30;;;;;;;;;;5114513;28;20028;-26
2023/07/31 03:37:23;;;;;;;35.03;6.95;;;;;;;;;;5114725;28;20258;-27
2023/07/31 03:39:48;;;;;;;29.60;6.80;;;;;;;;;;5114313;28;20122;-26
2023/07/31 03:42:14;;;;;;;35.20;6.00;;;;;;;;;;5114949;28;20019;-27
2023/07/31 03:44:39;;;;;;;20.98;5.85;;;;;;;;;;5114656;28;20258;-27
2023/07/31 03:47:05;;;;;;;27.97;7.17;;;;;;;;;;5114308;28;20019;-27
2023/07/31 03:49:30;;;;;;;29.45;6.35;;;;;;;;;;5114570;28;20031;-27
2023/07/31 03:51:56;;;;;;;35.00;6.60;;;;;;;;;;5114289;28;20015;-27
2023/07/31 03:54:21;;;;;;;21.77;5.65;;;;;;;;;;5114147;28;20265;-27
2023/07/31 03:56:46;;;;;;;28.30;6.67;;;;;;;;;;5114225;28;20019;-27
2023/07/31 03:59:11;;;;;;;30.77;5.93;;;;;;;;;;5114170;28;20732;-27
2023/07/31 04:01:36;;;;;;;30.00;6.57;;;;;;;;;;5114520;28;20106;-36
2023/07/31 04:04:02;;;;;;;33.47;6.40;;;;;;;;;;5114360;28;20280;-27
2023/07/31 04:06:27;;;;;;;24.25;6.07;;;;;;;;;;5114366;28;20294;-27
2023/07/31 04:08:52;;;;;;;25.83;6.13;;;;;;;;;;5114314;28;20043;-27
2023/07/31 04:11:17;;;;;;;23.70;5.90;;;;;;;;;;5113993;28;20344;-27
2023/07/31 04:13:42;;;;;;;35.63;6.77;;;;;;;;;;5114221;28;20253;-27
2023/07/31 04:16:08;;;;;;;22.23;5.70;;;;;;;;;;5113996;28;20242;-27
2023/07/31 04:18:33;;;;;;;24.37;5.60;;;;;;;;;;5114499;28;20254;-27
2023/07/31 04:20:58;;;;;;;29.63;6.10;;;;;;;;;;5114058;28;20755;-26
2023/07/31 04:23:24;;;;;;;24.77;6.18;;;;;;;;;;5114090;28;20450;-27
2023/07/31 04:25:49;;;;;;;26.08;6.50;;;;;;;;;;5113793;28;20047;-26
2023/07/31 04:28:14;;;;;;;37.00;6.50;;;;;;;;;;5113830;28;20504;-26
2023/07/31 04:30:39;;;;;;;28.70;5.70;;;;;;;;;;5114376;28;20016;-26
2023/07/31 04:33:04;;;;;;;27.83;6.90;;;;;;;;;;5114448;28;20288;-26
2023/07/31 04:35:29;;;;;;;33.37;6.27;;;;;;;;;;5113860;28;20032;-26
2023/07/31 04:37:55;;;;;;;32.13;6.87;;;;;;;;;;5115466;28;20295;-28
2023/07/31 04:40:20;;;;;;;32.20;6.70;;;;;;;;;;5117795;28;20764;-26
2023/07/31 04:42:46;;;;;;;24.30;6.25;;;;;;;;;;5118080;28;20024;-27
2023/07/31 04:45:11;;;;;;;30.30;6.63;;;;;;;;;;5118068;28;20489;-27
2023/07/31 04:47:36;;;;;;;37.63;6.93;;;;;;;;;;5117704;28;20111;-26
2023/07/31 04:50:02;;;;;;;23.50;6.50;;;;;;;;;;5118462;28;20071;-27
2023/07/31 04:52:27;;;;;;;23.15;6.55;;;;;;;;;;5118284;28;20155;-27
2023/07/31 04:54:52;;;;;;;29.77;6.47;;;;;;;;;;5118225;28;20027;-26
2023/07/31 04:57:17;;;;;;;23.40;6.23;;;;;;;;;;5117539;28;20740;-26
2023/07/31 04:59:42;;;;;;;20.30;6.10;;;;;;;;;;5118108;28;20269;-27
2023/07/31 05:02:08;;;;;;;28.67;6.13;;;;;;;;;;5117845;28;20277;-26
2023/07/31 05:04:33;;;;;;;27.73;7.05;;;;;;;;;;5117374;28;20094;-27
2023/07/31 05:06:58;;;;;;;20.05;5.45;;;;;;;;;;5117415;28;20370;-27
2023/07/31 05:09:23;;;;;;;19.25;5.43;;;;;;;;;;5117952;28;20016;-26
2023/07/31 05:11:49;;;;;;;16.50;5.37;;;;;;;;;;5117831;28;20023;-27
2023/07/31 05:14:15;;;;;;;15.97;5.30;;;;;;;;;;5117847;28;20596;-27
2023/07/31 05:16:40;;;;;;;14.68;5.20;;;;;;;;;;5117503;28;20584;-28
2023/07/31 05:19:05;;;;;;;16.80;5.40;;;;;;;;;;5117168;28;20068;-26
2023/07/31 05:21:31;;;;;;;13.63;5.40;;;;;;;;;;5117633;28;20273;-26
2023/07/31 05:23:56;;;;;;;18.33;5.37;;;;;;;;;;5116983;28;20728;-26
2023/07/31 05:26:21;;;;;;;13.00;4.63;;;;;;;;;;5117482;28;20288;-27
2023/07/31 05:28:46;;;;;;;15.52;4.65;;;;;;;;;;5117115;28;20362;-26
2023/07/31 05:31:11;;;;;;;12.07;4.60;;;;;;;;;;5117068;28;20138;-27
2023/07/31 05:33:37;;;;;;;8.97;3.93;;;;;;;;;;5116787;28;20787;-26
2023/07/31 05:36:02;;;;;;;12.10;4.00;;;;;;;;;;5117002;28;20015;-27
2023/07/31 05:38:27;;;;;;;9.85;3.80;;;;;;;;;;5116678;28;20515;-27
2023/07/31 05:40:52;;;;;;;11.30;4.10;;;;;;;;;;5116444;28;20043;-27
2023/07/31 05:43:17;;;;;;;9.60;3.77;;;;;;;;;;5116484;28;20027;-26
2023/07/31 05:45:43;;;;;;;9.00;3.63;;;;;;;;;;5116845;28;20253;-27
2023/07/31 05:48:08;;;;;;;9.77;3.63;;;;;;;;;;5116246;28;20254;-26
2023/07/31 05:50:33;;;;;;;7.68;3.70;;;;;;;;;;5116712;28;20112;-26
2023/07/31 05:52:58;;;;;;;7.57;3.50;;;;;;;;;;5116495;28;20020;-27
2023/07/31 05:55:26;;;;;;;10.48;3.80;;;;;;;;;;5116590;28;20266;-27
2023/07/31 05:57:51;;;;;;;8.90;4.00;;;;;;;;;;5116551;28;20024;-27
2023/07/31 06:00:17;;;;;;;9.15;3.60;;;;;;;;;;5116287;28;20470;-27
2023/07/31 06:02:42;;;;;;;10.00;3.30;;;;;;;;;;5097741;28;20077;-26
2023/07/31 06:05:07;;;;;;;11.70;3.63;;;;;;;;;;5116136;28;20368;-26
2023/07/31 06:07:32;;;;;;;9.23;3.60;;;;;;;;;;5116358;28;20348;-26
2023/07/31 06:10:03;;;;;;;10.97;3.63;;;;;;;;;;5116643;28;20351;-27
2023/07/31 06:12:28;;;;;;;9.77;3.83;;;;;;;;;;5116254;28;20030;-27
2023/07/31 06:14:57;;;;;;;6.45;3.50;;;;;;;;;;5116048;28;20517;-27
2023/07/31 06:17:22;;;;;;;11.55;3.70;;;;;;;;;;5097675;28;20455;-27
2023/07/31 06:19:48;;;;;;;9.35;3.17;;;;;;;;;;5116549;28;20043;-27
2023/07/31 06:22:13;;;;;;;9.55;3.33;;;;;;;;;;5116458;28;20028;-27
2023/07/31 06:24:39;;;;;;;10.57;3.60;;;;;;;;;;5115925;28;20023;-27
2023/07/31 06:27:05;;;;;;;9.60;3.63;;;;;;;;;;5115978;28;20261;-27
2023/07/31 06:29:31;;;;;;;7.80;3.60;;;;;;;;;;5115765;28;20358;-27
2023/07/31 06:31:56;;;;;;;9.03;3.33;;;;;;;;;;5115777;28;20058;-27
2023/07/31 06:34:21;;;;;;;7.60;3.20;;;;;;;;;;5115734;28;20265;-27
2023/07/31 06:36:46;;;;;;;7.90;3.28;;;;;;;;;;5116001;28;20019;-27
2023/07/31 06:39:11;;;;;;;12.30;3.43;;;;;;;;;;5115510;28;20043;-32
2023/07/31 06:41:37;;;;;;;9.27;3.23;;;;;;;;;;5116076;28;20047;-27
2023/07/31 06:44:03;;;;;;;8.90;2.67;;;;;;;;;;5115523;28;20640;-27
2023/07/31 06:46:28;;;;;;;7.55;2.90;;;;;;;;;;5115332;28;20008;-27
2023/07/31 06:48:53;;;;;;;6.30;2.90;;;;;;;;;;5115388;28;20023;-27
2023/07/31 06:51:18;;;;;;;5.80;2.60;;;;;;;;;;5115321;28;20581;-27
2023/07/31 06:53:45;;;;;;;6.43;2.80;;;;;;;;;;5115343;28;20024;-27
2023/07/31 06:56:10;;;;;;;7.05;2.60;;;;;;;;;;5115501;28;20276;-27
2023/07/31 06:58:35;;;;;;;5.78;2.50;;;;;;;;;;5115774;28;20502;-27
2023/07/31 07:01:00;;;;;;;4.83;2.30;;;;;;;;;;5114517;28;20409;-27
2023/07/31 07:03:27;;;;;;;4.73;2.30;;;;;;;;;;5114922;28;20327;-27
2023/07/31 07:05:52;;;;;;;5.95;2.50;;;;;;;;;;5115050;28;20646;-27
2023/07/31 07:08:17;;;;;;;5.50;2.40;;;;;;;;;;5096734;28;20011;-27
2023/07/31 07:10:43;;;;;;;3.75;2.15;;;;;;;;;;5114880;28;20268;-27
2023/07/31 07:13:08;;;;;;;4.93;2.20;;;;;;;;;;5114873;28;20030;-27
2023/07/31 07:15:33;;;;;;;6.57;2.40;;;;;;;;;;5114821;28;20181;-27
2023/07/31 07:17:58;;;;;;;6.17;2.50;;;;;;;;;;5114934;28;20314;-27
2023/07/31 07:20:24;;;;;;;6.53;2.50;;;;;;;;;;5114767;28;20020;-27
2023/07/31 07:22:49;;;;;;;5.15;2.47;;;;;;;;;;5114941;28;20285;-26
2023/07/31 07:25:14;;;;;;;5.07;2.27;;;;;;;;;;5114665;28;20015;-34
2023/07/31 07:27:39;;;;;;;6.82;2.35;;;;;;;;;;5114894;28;20022;-27
2023/07/31 07:30:05;;;;;;;4.50;2.30;;;;;;;;;;5114628;28;20425;-27
2023/07/31 07:32:30;;;;;;;6.57;2.00;;;;;;;;;;5114717;28;20248;-27
2023/07/31 07:34:56;;;;;;;3.80;2.08;;;;;;;;;;5114756;28;20015;-27
2023/07/31 07:37:21;;;;;;;3.92;1.67;;;;;;;;;;5114577;28;20031;-27
2023/07/31 07:39:46;;;;;;;3.83;2.00;;;;;;;;;;5114331;28;20120;-27
2023/07/31 07:42:11;;;;;;;3.72;1.70;;;;;;;;;;5114204;28;20019;-27
2023/07/31 07:44:37;;;;;;;2.83;1.77;;;;;;;;;;5114265;28;20026;-27
2023/07/31 07:47:02;;;;;;;2.95;1.60;;;;;;;;;;5114549;28;20256;-27
2023/07/31 07:49:27;;;;;;;2.75;1.50;;;;;;;;;;5114690;28;20463;-27
2023/07/31 07:51:53;;;;;;;4.10;1.60;;;;;;;;;;5114172;28;20043;-27
2023/07/31 07:54:19;;;;;;;2.20;1.40;;;;;;;;;;5114079;28;20029;-27
2023/07/31 07:56:44;;;;;;;2.75;1.52;;;;;;;;;;5114345;28;20265;-27
2023/07/31 07:59:09;;;;;;;3.35;1.48;;;;;;;;;;5114292;28;20339;-27
2023/07/31 08:01:34;;;;;;;2.90;1.60;;;;;;;;;;5114382;28;20123;-27
2023/07/31 08:03:59;;;;;;;3.93;1.60;;;;;;;;;;5113971;28;20258;-27
2023/07/31 08:06:25;;;;;;;2.63;1.60;;;;;;;;;;5114192;28;20253;-27
2023/07/31 08:08:50;;;;;;;1.88;1.23;;;;;;;;;;5114249;28;20020;-27
2023/07/31 08:11:15;;;;;;;1.57;1.10;;;;;;;;;;5113633;28;20019;-27
2023/07/31 08:13:41;;;;;;;2.13;1.40;;;;;;;;;;5113536;28;20253;-27
2023/07/31 08:16:06;;;;;;;2.45;1.38;;;;;;;;;;5114170;28;20055;-27
2023/07/31 08:18:32;;;;;;;1.98;1.30;;;;;;;;;;5113867;28;20073;-26
2023/07/31 08:20:57;;;;;;;1.75;1.10;;;;;;;;;;5114084;28;20030;-26
2023/07/31 08:23:22;;;;;;;2.60;1.20;;;;;;;;;;5114226;28;20106;-29
2023/07/31 08:25:49;;;;;;;2.97;1.27;;;;;;;;;;5114102;28;20012;-27
2023/07/31 08:28:15;;;;;;;2.15;1.33;;;;;;;;;;5113798;28;20022;-27
2023/07/31 08:30:41;;;;;;;2.53;1.40;;;;;;;;;;5095378;28;20114;-27
2023/07/31 08:33:06;;;;;;;2.05;1.15;;;;;;;;;;5095461;28;20034;-26
2023/07/31 08:35:32;;;;;;;1.95;1.10;;;;;;;;;;5113603;28;20119;-26
2023/07/31 08:37:57;;;;;;;1.60;1.00;;;;;;;;;;5113862;28;20106;-26
2023/07/31 08:40:22;;;;;;;1.67;1.10;;;;;;;;;;5113470;28;20691;-26
2023/07/31 08:42:48;;;;;;;1.48;1.10;;;;;;;;;;5113803;28;20281;-26
2023/07/31 08:45:15;;;;;;;1.23;1.00;;;;;;;;;;5113577;28;20015;-26
2023/07/31 08:47:42;;;;;;;1.33;1.00;;;;;;;;;;5113789;28;20415;-26
2023/07/31 08:50:07;;;;;;;3.85;1.38;;;;;;;;;;5113584;28;20374;-27
2023/07/31 08:52:33;;;;;;;2.55;1.13;;;;;;;;;;5113501;28;20027;-28
2023/07/31 08:54:59;;;;;;;1.85;0.93;;;;;;;;;;5113524;28;20030;-27
2023/07/31 08:57:24;;;;;;;2.47;1.00;;;;;;;;;;5113354;28;20047;-27
2023/07/31 08:59:50;;;;;;;0.82;0.80;;;;;;;;;;5113498;28;20487;-28
2023/07/31 09:02:16;;;;;;;2.65;1.10;;;;;;;;;;5113642;28;20111;-27
2023/07/31 09:04:41;;;;;;;0.73;0.73;;;;;;;;;;5113428;28;20018;-27
2023/07/31 09:07:09;;;;;;;2.10;1.02;;;;;;;;;;5113748;28;20043;-27
2023/07/31 09:09:34;;;;;;;3.50;0.93;;;;;;;;;;5113363;28;20030;-26
2023/07/31 09:11:59;;;;;;;1.08;0.73;;;;;;;;;;5113559;28;20015;-27
2023/07/31 09:14:25;;;;;;;1.42;0.70;;;;;;;;;;5113293;28;20019;-27
2023/07/31 09:16:58;;;;;;;1.08;0.80;;;;;;;;;;5113314;28;20015;-25
2023/07/31 09:19:33;;;;;;;1.52;0.93;;;;;;;;;;5113171;28;20166;-26
2023/07/31 09:21:58;;;;;;;1.58;0.93;;;;;;;;;;5113482;28;20008;-26
2023/07/31 09:24:28;;;;;;;1.05;0.95;;;;;;;;;;5115514;28;20430;-26
2023/07/31 09:26:53;;;;;;;3.03;1.02;;;;;;;;;;5117272;28;20032;-26
2023/07/31 09:29:19;;;;;;;5.10;1.08;;;;;;;;;;5117228;28;20366;-26
2023/07/31 09:31:51;;;;;;;2.22;1.10;;;;;;;;;;5116894;28;20098;-27
2023/07/31 09:34:16;;;;;;;1.30;0.93;;;;;;;;;;5116827;28;20106;-26
2023/07/31 09:36:42;;;;;;;2.08;0.80;;;;;;;;;;5117122;28;20104;-27
2023/07/31 09:39:11;;;;;;;4.55;0.90;;;;;;;;;;5116553;28;20047;-27
2023/07/31 09:41:40;;;;;;;1.13;0.82;;;;;;;;;;5116765;28;20135;-26
2023/07/31 09:44:06;;;;;;;1.08;0.70;;;;;;;;;;5116809;28;20467;-26
2023/07/31 09:46:31;;;;;;;1.60;0.88;;;;;;;;;;5117300;28;20015;-26
2023/07/31 09:49:09;;;;;;;1.35;0.80;;;;;;;;;;5116665;28;20523;-26
2023/07/31 09:51:38;;;;;;;1.67;1.05;;;;;;;;;;5116625;28;20028;-26
2023/07/31 09:54:03;;;;;;;0.93;0.80;;;;;;;;;;5116298;28;20097;-26
2023/07/31 09:56:29;;;;;;;1.33;0.90;;;;;;;;;;5115996;28;20019;-26
2023/07/31 09:58:55;;;;;;;1.38;1.10;;;;;;;;;;5116128;28;20462;-27
2023/07/31 10:01:20;;;;;;;3.42;1.23;;;;;;;;;;5115781;28;20027;-27
2023/07/31 10:03:45;;;;;;;3.47;1.33;;;;;;;;;;5115697;28;20035;-27
2023/07/31 10:06:11;;;;;;;3.22;1.42;;;;;;;;;;5116180;28;20241;-27
2023/07/31 10:08:37;;;;;;;2.35;1.40;;;;;;;;;;5116810;28;20015;-26
2023/07/31 10:11:03;;;;;;;3.83;1.50;;;;;;;;;;5116462;28;20016;-27
2023/07/31 10:13:29;;;;;;;4.18;1.50;;;;;;;;;;5116475;28;20016;-26
2023/07/31 10:15:54;;;;;;;3.33;1.58;;;;;;;;;;5117118;28;20073;-27
2023/07/31 10:18:20;;;;;;;2.78;1.60;;;;;;;;;;5116319;28;20098;-27
2023/07/31 10:20:46;;;;;;;3.22;1.60;;;;;;;;;;5116312;28;20053;-27
2023/07/31 10:23:13;;;;;;;8.88;1.77;;;;;;;;;;5116257;28;20108;-27
2023/07/31 10:25:38;;;;;;;2.88;1.80;;;;;;;;;;5116235;28;20016;-27
2023/07/31 10:28:03;;;;;;;3.00;1.67;;;;;;;;;;5116466;28;20043;-27
2023/07/31 10:30:30;;;;;;;3.58;1.80;;;;;;;;;;5115886;28;20366;-27
2023/07/31 10:32:55;;;;;;;4.35;2.10;;;;;;;;;;5116107;28;20030;-27
2023/07/31 10:35:23;;;;;;;4.30;1.85;;;;;;;;;;5114773;28;20458;-28
2023/07/31 10:37:49;;;;;;;4.28;1.88;;;;;;;;;;5116050;28;20047;-27
2023/07/31 10:40:20;;;;;;;4.60;1.85;;;;;;;;;;5115457;28;20071;-27
2023/07/31 10:42:46;;;;;;;4.32;2.00;;;;;;;;;;5115784;28;20424;-27
2023/07/31 10:45:12;;;;;;;4.05;2.00;;;;;;;;;;5115767;28;20374;-27
2023/07/31 10:47:46;;;;;;;3.70;1.97;;;;;;;;;;5115655;28;20007;-27
2023/07/31 10:50:11;;;;;;;4.43;2.10;;;;;;;;;;5115419;28;20023;-27
2023/07/31 10:52:36;;;;;;;5.47;2.50;;;;;;;;;;5115356;28;20362;-27
2023/07/31 10:55:14;;;;;;;3.75;1.98;;;;;;;;;;5115989;28;20023;-27
2023/07/31 10:57:44;;;;;;;5.07;2.08;;;;;;;;;;5115889;28;20023;-27
2023/07/31 11:00:20;;;;;;;7.88;2.30;;;;;;;;;;5097035;28;20355;-27
2023/07/31 11:02:56;;;;;;;4.85;2.10;;;;;;;;;;5115049;28;20044;-27
2023/07/31 11:05:40;;;;;;;4.97;2.30;;;;;;;;;;5115496;28;20015;-27
2023/07/31 11:08:10;;;;;;;5.20;2.10;;;;;;;;;;5115191;28;20405;-27
2023/07/31 11:10:35;;;;;;;7.05;2.10;;;;;;;;;;5096929;28;20015;-27
2023/07/31 11:13:00;;;;;;;6.47;2.57;;;;;;;;;;5115369;28;20462;-27
2023/07/31 11:15:26;;;;;;;6.07;2.50;;;;;;;;;;5096766;28;20261;-27
2023/07/31 11:17:55;;;;;;;7.43;2.80;;;;;;;;;;5079913;28;20030;-27
2023/07/31 11:20:20;;;;;;;12.57;2.70;;;;;;;;;;5115467;28;20023;-27
2023/07/31 11:22:47;;;;;;;6.10;2.70;;;;;;;;;;5115064;28;20031;-27
2023/07/31 11:25:14;;;;;;;16.63;3.00;;;;;;;;;;5114810;28;20018;-27
2023/07/31 11:27:40;;;;;;;6.38;2.80;;;;;;;;;;5114731;28;20016;-27
2023/07/31 11:30:07;;;;;;;6.95;2.65;;;;;;;;;;5114595;28;20023;-27
2023/07/31 11:32:32;;;;;;;7.88;2.88;;;;;;;;;;5114612;28;20032;-27
2023/07/31 11:34:57;;;;;;;6.93;2.70;;;;;;;;;;5115156;28;20064;-27
2023/07/31 11:37:23;;;;;;;8.40;2.75;;;;;;;;;;5114751;28;20348;-27
2023/07/31 11:40:06;;;;;;;11.10;2.60;;;;;;;;;;5114566;28;20482;-27
2023/07/31 11:42:31;;;;;;;7.32;2.67;;;;;;;;;;5114239;28;20031;-27
2023/07/31 11:44:56;;;;;;;11.02;3.00;;;;;;;;;;5114627;28;20011;-27
2023/07/31 11:47:22;;;;;;;12.80;3.00;;;;;;;;;;5114184;28;20201;-26
2023/07/31 11:49:47;;;;;;;10.40;2.80;;;;;;;;;;5114565;28;20107;-27
2023/07/31 11:52:13;;;;;;;9.00;2.60;;;;;;;;;;5114252;28;20098;-26
2023/07/31 11:54:38;;;;;;;7.05;2.63;;;;;;;;;;5114189;28;20042;-27
2023/07/31 11:57:04;;;;;;;7.80;2.70;;;;;;;;;;5115244;28;20054;-27
2023/07/31 11:59:30;;;;;;;9.73;2.58;;;;;;;;;;5114410;28;20024;-26
2023/07/31 12:01:55;;;;;;;14.75;3.10;;;;;;;;;;5114577;28;20118;-26
2023/07/31 12:04:21;;;;;;;11.60;3.30;;;;;;;;;;5114194;28;20018;-27
2023/07/31 12:06:47;;;;;;;12.43;2.60;;;;;;;;;;5114030;28;20047;-27
2023/07/31 12:09:14;;;;;;;9.60;3.10;;;;;;;;;;5114340;28;20054;-27
2023/07/31 12:11:45;;;;;;;12.25;2.72;;;;;;;;;;5114066;28;20020;-27
2023/07/31 12:14:21;;;;;;;9.63;2.80;;;;;;;;;;5113969;28;20035;-27
2023/07/31 12:16:46;;;;;;;7.35;2.60;;;;;;;;;;5114292;28;20518;-27
2023/07/31 12:19:11;;;;;;;6.83;2.70;;;;;;;;;;5114559;28;20046;-27
2023/07/31 12:21:37;;;;;;;6.40;2.70;;;;;;;;;;5114343;28;20011;-26
2023/07/31 12:24:03;;;;;;;9.30;2.92;;;;;;;;;;5113825;28;20246;-26
2023/07/31 12:26:33;;;;;;;8.10;2.75;;;;;;;;;;5113855;28;20016;-27
2023/07/31 12:28:58;;;;;;;7.68;2.70;;;;;;;;;;5113786;28;20378;-26
2023/07/31 12:31:27;;;;;;;6.67;2.47;;;;;;;;;;5114095;28;20020;-27
2023/07/31 12:33:52;;;;;;;9.57;3.13;;;;;;;;;;5114018;28;20250;-26
2023/07/31 12:36:20;;;;;;;7.35;2.50;;;;;;;;;;5114144;28;20015;-27
2023/07/31 12:38:48;;;;;;;7.78;2.95;;;;;;;;;;5113932;28;20061;-27
2023/07/31 12:41:14;;;;;;;11.57;2.80;;;;;;;;;;5095399;28;20024;-27
2023/07/31 12:43:40;;;;;;;9.77;2.80;;;;;;;;;;5096620;28;20031;-27
2023/07/31 12:46:07;;;;;;;8.35;2.72;;;;;;;;;;5113669;28;20505;-26
2023/07/31 12:48:34;;;;;;;9.57;2.97;;;;;;;;;;5113634;28;20020;-26
2023/07/31 12:50:59;;;;;;;7.68;3.03;;;;;;;;;;5113392;28;20023;-26
2023/07/31 12:53:24;;;;;;;9.02;2.88;;;;;;;;;;5112643;28;20035;-26
2023/07/31 12:55:50;;;;;;;9.02;3.10;;;;;;;;;;5112769;28;20031;-27
2023/07/31 12:58:15;;;;;;;9.88;3.15;;;;;;;;;;5114047;28;20024;-26
2023/07/31 13:00:40;;;;;;;15.20;3.30;;;;;;;;;;5117440;28;20023;-27
2023/07/31 13:03:05;;;;;;;12.60;3.80;;;;;;;;;;5117419;28;20387;-27
2023/07/31 13:05:31;;;;;;;11.67;3.97;;;;;;;;;;5117467;28;20024;-26
2023/07/31 13:07:56;;;;;;;7.00;3.70;;;;;;;;;;5118000;28;20330;-27
2023/07/31 13:10:22;;;;;;;6.93;3.78;;;;;;;;;;5117890;28;20110;-27
2023/07/31 13:12:47;;;;;;;8.40;3.60;;;;;;;;;;5117855;28;20016;-27
2023/07/31 13:15:12;;;;;;;9.33;3.83;;;;;;;;;;5117939;28;20038;-27
2023/07/31 13:17:38;;;;;;;8.53;3.37;;;;;;;;;;5117228;28;20612;-27
2023/07/31 13:20:03;;;;;;;9.38;3.10;;;;;;;;;;5117480;28;20035;-27
2023/07/31 13:22:28;;;;;;;8.43;3.05;;;;;;;;;;5117139;28;20019;-27
2023/07/31 13:24:54;;;;;;;10.40;3.13;;;;;;;;;;5117114;28;20096;-27
2023/07/31 13:27:19;;;;;;;8.47;3.07;;;;;;;;;;5117058;28;20016;-26
2023/07/31 13:29:48;;;;;;;8.57;3.42;;;;;;;;;;5117222;28;20311;-27
2023/07/31 13:32:13;;;;;;;6.22;3.10;;;;;;;;;;5117205;28;20106;-27
2023/07/31 13:34:38;;;;;;;6.17;3.10;;;;;;;;;;5116954;28;20015;-27
2023/07/31 13:37:05;;;;;;;8.30;2.70;;;;;;;;;;5117153;28;20027;-27
2023/07/31 13:39:31;;;;;;;10.70;3.00;;;;;;;;;;5116453;28;20040;-27
2023/07/31 13:41:56;;;;;;;10.55;2.60;;;;;;;;;;5116991;28;20088;-27
2023/07/31 13:44:21;;;;;;;5.93;2.73;;;;;;;;;;5116900;28;20011;-27
2023/07/31 13:46:46;;;;;;;6.13;2.40;;;;;;;;;;5116718;28;20023;-27
2023/07/31 13:49:11;;;;;;;6.77;2.83;;;;;;;;;;5117064;28;20642;-27
2023/07/31 13:51:39;;;;;;;6.80;2.73;;;;;;;;;;5116737;28;20051;-27
2023/07/31 13:54:04;;;;;;;7.78;3.08;;;;;;;;;;5116176;28;20073;-26
2023/07/31 13:56:29;;;;;;;5.87;2.57;;;;;;;;;;5116274;28;20020;-29
2023/07/31 13:58:54;;;;;;;7.80;2.70;;;;;;;;;;5114307;28;20043;-27
2023/07/31 14:01:19;;;;;;;5.87;2.90;;;;;;;;;;5114220;28;20348;-26
2023/07/31 14:03:45;;;;;;;4.83;2.50;;;;;;;;;;5114010;28;20309;-26
2023/07/31 14:06:10;;;;;;;5.07;2.40;;;;;;;;;;5114168;28;20375;-26
2023/07/31 14:08:35;;;;;;;4.82;2.60;;;;;;;;;;5114156;28;20061;-26
2023/07/31 14:11:00;;;;;;;7.93;2.78;;;;;;;;;;5113971;28;20053;-27
2023/07/31 14:13:25;;;;;;;4.40;2.30;;;;;;;;;;5115453;28;20027;-26
2023/07/31 14:15:51;;;;;;;4.60;2.23;;;;;;;;;;5116378;28;20262;-26
2023/07/31 14:18:16;;;;;;;5.40;2.27;;;;;;;;;;5116546;28;20740;-27
2023/07/31 14:20:41;;;;;;;3.40;2.20;;;;;;;;;;5097794;28;20020;-26
2023/07/31 14:23:06;;;;;;;5.77;2.30;;;;;;;;;;5115952;28;20028;-26
2023/07/31 14:25:32;;;;;;;4.78;2.03;;;;;;;;;;5116297;28;20420;-26
2023/07/31 14:27:57;;;;;;;5.57;2.20;;;;;;;;;;5097681;28;20047;-28
2023/07/31 14:30:23;;;;;;;8.10;2.30;;;;;;;;;;5116029;28;20470;-27